Time;durP1;ratioP1;P1;durP2;ratioP2;P2;SDS_P1;SDS_P2;PMS_P1;PMS_P2;Temp;Humidity;BMP_temperature;BMP_pressure;BME280_temperature;BME280_humidity;BME280_pressure;Samples;Min_cycle;Max_cycle;Signal;HPM_P1;HPM_P2
2023/06/30 00:02:25;;;;;;;5.47;2.17;;;;;;;17.56;62.40;101659.00;5031734;28;20120;-44
2023/06/30 00:04:50;;;;;;;4.78;2.20;;;;;;;17.56;62.44;101662.53;5032432;28;20120;-46
2023/06/30 00:07:20;;;;;;;4.93;2.28;;;;;;;17.58;62.42;101660.75;5030965;28;20427;-50
2023/06/30 00:09:46;;;;;;;5.93;2.17;;;;;;;17.54;62.39;101664.28;5031477;28;20068;-50
2023/06/30 00:12:11;;;;;;;6.15;2.17;;;;;;;17.53;62.66;101662.53;5031942;28;20527;-45
2023/06/30 00:14:36;;;;;;;6.20;2.28;;;;;;;17.49;62.51;101663.41;5031065;28;20037;-49
2023/06/30 00:17:02;;;;;;;3.40;1.90;;;;;;;17.45;62.71;101665.16;5031589;28;20229;-46
2023/06/30 00:19:27;;;;;;;5.20;2.08;;;;;;;17.43;62.68;101666.94;5031277;28;20079;-47
2023/06/30 00:21:53;;;;;;;4.68;2.10;;;;;;;17.44;62.79;101655.50;5031490;28;20407;-44
2023/06/30 00:24:18;;;;;;;5.40;1.98;;;;;;;17.47;62.87;101659.03;5030752;28;20045;-43
2023/06/30 00:26:44;;;;;;;5.80;2.13;;;;;;;17.48;62.94;101652.88;5030789;28;20140;-42
2023/06/30 00:29:10;;;;;;;6.72;2.30;;;;;;;17.46;63.33;101647.59;5031013;28;20033;-46
2023/06/30 00:31:35;;;;;;;4.57;2.40;;;;;;;17.44;62.95;101650.22;5030487;28;20021;-48
2023/06/30 00:34:01;;;;;;;4.05;2.20;;;;;;;17.37;63.13;101647.63;5030848;28;20060;-49
2023/06/30 00:36:26;;;;;;;5.80;2.15;;;;;;;17.34;63.18;101645.88;5029474;28;20558;-46
2023/06/30 00:38:54;;;;;;;5.63;2.03;;;;;;;17.31;63.50;101640.63;5030673;28;20113;-44
2023/06/30 00:41:20;;;;;;;4.57;2.20;;;;;;;17.32;63.58;101650.25;5030443;28;20030;-45
2023/06/30 00:43:45;;;;;;;4.60;2.30;;;;;;;17.31;63.71;101643.25;5028921;28;20040;-49
2023/06/30 00:46:14;;;;;;;8.18;2.25;;;;;;;17.32;63.79;101639.72;5030160;28;20558;-44
2023/06/30 00:48:39;;;;;;;3.05;2.28;;;;;;;17.30;63.77;101635.34;5029705;28;20037;-47
2023/06/30 00:51:05;;;;;;;6.05;2.47;;;;;;;17.30;63.95;101640.63;5030509;28;20028;-45
2023/06/30 00:53:31;;;;;;;4.72;2.40;;;;;;;17.30;63.98;101645.88;5029888;28;20056;-49
2023/06/30 00:55:57;;;;;;;4.65;2.20;;;;;;;17.28;64.00;101640.59;5030326;28;20038;-46
2023/06/30 00:58:23;;;;;;;6.15;2.30;;;;;;;17.28;64.07;101640.59;5029489;28;20043;-44
2023/06/30 01:00:50;;;;;;;6.65;2.20;;;;;;;17.28;64.10;101634.47;5030607;28;20098;-42
2023/06/30 01:03:27;;;;;;;6.78;2.38;;;;;;;17.30;64.08;101637.97;5030279;28;20557;-44
2023/06/30 01:06:22;;;;;;;6.57;2.30;;;;;;;17.29;64.32;101638.84;5030826;28;20037;-46
2023/06/30 01:08:58;;;;;;;5.38;2.13;;;;;;;17.24;64.04;101641.50;5029891;28;20025;-50
2023/06/30 01:11:24;;;;;;;6.22;2.20;;;;;;;17.19;63.93;101634.50;5030213;28;20033;-44
2023/06/30 01:13:53;;;;;;;5.15;2.10;;;;;;;17.17;63.89;101633.59;5030126;28;20086;-43
2023/06/30 01:16:21;;;;;;;3.92;2.00;;;;;;;17.13;63.99;101639.78;5029694;28;20041;-43
2023/06/30 01:18:52;;;;;;;5.30;2.30;;;;;;;17.11;64.19;101634.50;5029559;28;20112;-49
2023/06/30 01:21:21;;;;;;;5.00;2.10;;;;;;;17.11;64.12;101630.97;5029772;28;20557;-44
2023/06/30 01:23:54;;;;;;;4.85;2.10;;;;;;;17.07;64.50;101639.78;5029882;28;20030;-44
2023/06/30 01:26:21;;;;;;;4.32;2.20;;;;;;;17.07;64.48;101631.88;5030063;28;20064;-47
2023/06/30 01:28:46;;;;;;;3.47;1.95;;;;;;;17.04;64.45;101627.47;5029947;28;20025;-43
2023/06/30 01:31:13;;;;;;;4.35;2.10;;;;;;;17.04;64.79;101638.88;5030537;28;20035;-45
2023/06/30 01:33:39;;;;;;;4.20;2.10;;;;;;;17.07;64.53;101629.25;5030293;28;20026;-45
2023/06/30 01:36:06;;;;;;;4.18;1.95;;;;;;;17.08;64.41;101633.63;5030474;28;20115;-45
2023/06/30 01:38:32;;;;;;;3.88;2.10;;;;;;;17.06;64.68;101632.75;5028683;28;20044;-52
2023/06/30 01:40:58;;;;;;;5.07;2.10;;;;;;;17.06;64.82;101633.63;5030055;28;20029;-45
2023/06/30 01:43:25;;;;;;;5.72;2.10;;;;;;;17.04;64.61;101630.97;5029805;28;20043;-53
2023/06/30 01:45:51;;;;;;;4.43;2.13;;;;;;;17.04;64.62;101625.72;5029986;28;20033;-48
2023/06/30 01:48:17;;;;;;;4.32;1.90;;;;;;;17.05;64.78;101634.50;5028917;28;20033;-49
2023/06/30 01:50:45;;;;;;;4.65;2.20;;;;;;;17.03;65.04;101631.84;5029664;28;20443;-52
2023/06/30 01:53:10;;;;;;;3.78;1.98;;;;;;;17.00;64.90;101621.34;5030156;28;20029;-43
2023/06/30 01:55:36;;;;;;;3.72;1.90;;;;;;;16.99;65.04;101623.97;5030507;28;20045;-43
2023/06/30 01:58:02;;;;;;;3.80;2.10;;;;;;;16.96;64.83;101621.31;5030284;28;20392;-44
2023/06/30 02:00:27;;;;;;;4.07;1.90;;;;;;;16.93;64.88;101614.31;5030103;28;20503;-47
2023/06/30 02:02:52;;;;;;;3.45;2.00;;;;;;;16.93;64.88;101616.06;5030550;28;20057;-44
2023/06/30 02:05:18;;;;;;;4.15;2.30;;;;;;;16.90;64.88;101616.06;5030588;28;20381;-43
2023/06/30 02:07:43;;;;;;;4.13;1.88;;;;;;;16.89;64.71;101617.84;5030620;28;20033;-48
2023/06/30 02:10:09;;;;;;;3.88;1.88;;;;;;;16.88;64.92;101616.09;5029827;28;20507;-47
2023/06/30 02:12:35;;;;;;;5.85;2.40;;;;;;;16.89;65.31;101607.31;5029162;28;20056;-48
2023/06/30 02:15:00;;;;;;;6.80;2.22;;;;;;;16.91;65.35;101607.28;5029422;28;20040;-48
2023/06/30 02:17:33;;;;;;;5.78;2.33;;;;;;;16.91;65.36;101607.28;5028293;28;20033;-49
2023/06/30 02:19:59;;;;;;;6.50;2.30;;;;;;;16.89;65.42;101615.22;5029490;28;20112;-47
2023/06/30 02:22:24;;;;;;;4.63;2.05;;;;;;;16.88;65.22;101608.19;5029306;28;20033;-45
2023/06/30 02:24:50;;;;;;;4.22;2.10;;;;;;;16.86;65.03;101606.41;5029205;28;20388;-48
2023/06/30 02:27:16;;;;;;;5.28;2.13;;;;;;;16.83;65.15;101607.28;5028573;28;20558;-46
2023/06/30 02:29:43;;;;;;;3.60;2.20;;;;;;;16.84;65.15;101610.78;5029028;28;20488;-49
2023/06/30 02:32:08;;;;;;;5.30;2.10;;;;;;;16.80;64.98;101609.06;5029184;28;20103;-47
2023/06/30 02:34:34;;;;;;;5.53;2.28;;;;;;;16.78;65.22;101611.69;5028414;28;20069;-44
2023/06/30 02:37:00;;;;;;;2.75;1.90;;;;;;;16.80;65.39;101614.31;5028763;28;20044;-45
2023/06/30 02:39:26;;;;;;;4.75;2.38;;;;;;;16.76;65.16;101609.94;5028724;28;20060;-45
2023/06/30 02:41:51;;;;;;;4.47;1.98;;;;;;;16.75;65.61;101611.69;5027862;28;20456;-44
2023/06/30 02:44:17;;;;;;;4.80;1.90;;;;;;;16.76;65.31;101607.31;5028546;28;20099;-49
2023/06/30 02:46:42;;;;;;;4.07;1.85;;;;;;;16.78;65.21;101610.81;5029280;28;20030;-45
2023/06/30 02:49:07;;;;;;;5.30;1.90;;;;;;;16.78;65.13;101606.41;5026962;28;20064;-42
2023/06/30 02:51:33;;;;;;;3.75;1.80;;;;;;;16.79;65.09;101604.66;5028671;28;20124;-43
2023/06/30 02:53:58;;;;;;;5.38;1.98;;;;;;;16.79;65.34;101610.81;5028957;28;20032;-43
2023/06/30 02:56:23;;;;;;;4.68;1.75;;;;;;;16.80;65.15;101611.69;5028415;28;20045;-47
2023/06/30 02:58:50;;;;;;;4.97;1.90;;;;;;;16.80;65.32;101603.78;5028303;28;20091;-44
2023/06/30 03:01:17;;;;;;;6.47;1.95;;;;;;;16.77;65.19;101603.81;5028574;28;20057;-45
2023/06/30 03:03:42;;;;;;;5.47;1.80;;;;;;;16.74;65.18;101596.78;5028795;28;20030;-46
2023/06/30 03:06:08;;;;;;;4.57;2.08;;;;;;;16.75;65.28;101608.19;5029153;28;20036;-52
2023/06/30 03:08:33;;;;;;;4.30;1.90;;;;;;;16.74;65.40;101607.31;5029386;28;20458;-45
2023/06/30 03:10:59;;;;;;;5.00;2.30;;;;;;;16.72;65.25;101600.28;5032564;28;20029;-44
2023/06/30 03:13:25;;;;;;;3.70;1.75;;;;;;;16.72;65.25;101601.16;5031853;28;20571;-46
2023/06/30 03:15:50;;;;;;;3.60;1.90;;;;;;;16.70;65.54;101604.69;5032493;28;20112;-45
2023/06/30 03:18:15;;;;;;;3.20;1.85;;;;;;;16.69;65.44;101601.16;5033837;28;20045;-44
2023/06/30 03:20:41;;;;;;;4.47;1.90;;;;;;;16.68;65.41;101604.66;5033121;28;20037;-45
2023/06/30 03:23:07;;;;;;;4.57;1.77;;;;;;;16.59;65.57;101597.63;5033481;28;20061;-42
2023/06/30 03:25:33;;;;;;;3.97;1.70;;;;;;;16.60;65.64;101609.03;5034453;28;20041;-42
2023/06/30 03:27:58;;;;;;;3.83;1.88;;;;;;;16.60;66.10;101606.41;5034308;28;20021;-44
2023/06/30 03:30:23;;;;;;;5.38;2.20;;;;;;;16.62;65.72;101608.19;5034612;28;20033;-43
2023/06/30 03:32:49;;;;;;;4.97;2.08;;;;;;;16.64;65.91;101602.94;5034875;28;20033;-43
2023/06/30 03:35:14;;;;;;;4.13;2.00;;;;;;;16.67;66.21;101607.28;5033965;28;20045;-44
2023/06/30 03:37:39;;;;;;;5.28;2.10;;;;;;;16.69;66.56;101608.19;5031633;28;20036;-45
2023/06/30 03:40:05;;;;;;;7.00;2.20;;;;;;;16.73;66.00;101608.19;5032195;28;20057;-44
2023/06/30 03:42:31;;;;;;;4.30;2.00;;;;;;;16.77;66.32;101609.06;5032104;28;20029;-45
2023/06/30 03:44:57;;;;;;;3.92;2.05;;;;;;;16.80;66.52;101603.78;5032486;28;20045;-44
2023/06/30 03:47:22;;;;;;;4.40;2.00;;;;;;;16.79;66.47;101602.03;5031243;28;20128;-44
2023/06/30 03:49:47;;;;;;;5.15;2.17;;;;;;;16.82;66.36;101608.19;5032030;28;20033;-44
2023/06/30 03:52:13;;;;;;;5.05;2.10;;;;;;;16.81;66.22;101608.19;5032480;28;20072;-45
2023/06/30 03:54:38;;;;;;;4.93;1.95;;;;;;;16.83;66.61;101603.81;5031594;28;20051;-43
2023/06/30 03:57:04;;;;;;;6.65;2.20;;;;;;;16.87;66.44;101606.44;5032131;28;20037;-46
2023/06/30 03:59:29;;;;;;;3.97;1.85;;;;;;;16.92;66.53;101603.78;5031447;28;20033;-46
2023/06/30 04:01:54;;;;;;;5.20;1.90;;;;;;;16.95;66.63;101602.03;5031870;28;20084;-46
2023/06/30 04:04:20;;;;;;;5.57;2.13;;;;;;;17.00;66.43;101602.03;5031315;28;20083;-46
2023/06/30 04:06:47;;;;;;;5.65;2.10;;;;;;;17.08;66.75;101599.38;5031626;28;20025;-43
2023/06/30 04:09:12;;;;;;;3.88;1.90;;;;;;;17.16;66.56;101594.97;5031824;28;20431;-45
2023/06/30 04:11:37;;;;;;;5.50;2.20;;;;;;;17.28;66.66;101598.44;5030957;28;20083;-44
2023/06/30 04:14:03;;;;;;;6.50;2.17;;;;;;;17.33;66.88;101588.75;5032239;28;20041;-47
2023/06/30 04:16:28;;;;;;;4.18;2.20;;;;;;;17.41;66.74;101588.75;5031990;28;20495;-47
2023/06/30 04:18:54;;;;;;;5.03;2.10;;;;;;;17.50;66.74;101582.56;5032469;28;20039;-47
2023/06/30 04:21:20;;;;;;;5.03;2.28;;;;;;;17.56;66.70;101591.34;5031944;28;20083;-45
2023/06/30 04:23:45;;;;;;;6.35;2.30;;;;;;;17.66;66.41;101589.56;5031859;28;20038;-43
2023/06/30 04:26:11;;;;;;;4.97;2.40;;;;;;;17.77;66.48;101590.38;5032237;28;20033;-43
2023/06/30 04:28:36;;;;;;;4.95;1.95;;;;;;;17.88;66.09;101587.69;5031298;28;20055;-47
2023/06/30 04:31:04;;;;;;;5.63;2.35;;;;;;;17.99;65.90;101585.91;5031567;28;20109;-46
2023/06/30 04:33:30;;;;;;;4.90;2.42;;;;;;;18.07;65.62;101598.13;5030943;28;20033;-44
2023/06/30 04:35:55;;;;;;;5.95;2.13;;;;;;;18.23;65.74;101588.38;5033051;28;20609;-42
2023/06/30 04:38:20;;;;;;;6.13;1.98;;;;;;;18.32;65.56;101590.94;5030657;28;20037;-44
2023/06/30 04:40:46;;;;;;;4.05;1.95;;;;;;;18.41;65.12;101597.94;5031025;28;20079;-45
2023/06/30 04:43:12;;;;;;;4.65;2.05;;;;;;;18.49;64.78;101596.97;5030961;28;20033;-44
2023/06/30 04:45:41;;;;;;;3.95;2.08;;;;;;;18.62;64.66;101593.38;5030498;28;20036;-45
2023/06/30 04:48:09;;;;;;;6.68;2.33;;;;;;;18.76;64.42;101589.75;5030216;28;20615;-49
2023/06/30 04:50:35;;;;;;;4.88;2.25;;;;;;;18.93;64.06;101598.38;5030446;28;20096;-48
2023/06/30 04:53:00;;;;;;;8.32;4.15;;;;;;;18.98;63.75;101602.75;5030623;28;20168;-50
2023/06/30 04:55:26;;;;;;;6.97;4.50;;;;;;;19.03;63.61;101606.19;5030250;28;20401;-43
2023/06/30 04:57:53;;;;;;;5.88;3.20;;;;;;;19.15;62.90;101604.34;5031454;28;20068;-50
2023/06/30 05:00:19;;;;;;;7.15;2.55;;;;;;;19.18;62.77;101607.84;5032744;28;20052;-48
2023/06/30 05:02:44;;;;;;;6.18;2.10;;;;;;;19.41;62.88;101607.56;5032217;28;20033;-43
2023/06/30 05:05:10;;;;;;;4.50;2.33;;;;;;;19.53;62.53;101604.81;5030597;28;20029;-45
2023/06/30 05:07:35;;;;;;;5.50;2.30;;;;;;;19.63;62.05;101597.66;5028375;28;20459;-48
2023/06/30 05:10:00;;;;;;;5.18;2.40;;;;;;;19.69;61.55;101593.19;5030260;28;20646;-44
2023/06/30 05:12:26;;;;;;;5.97;2.22;;;;;;;19.81;61.39;101592.13;5029931;28;20589;-47
2023/06/30 05:14:51;;;;;;;6.63;2.33;;;;;;;19.84;61.40;101587.66;5030054;28;20036;-48
2023/06/30 05:17:17;;;;;;;6.00;2.20;;;;;;;20.12;60.92;101595.25;5029190;28;20041;-44
2023/06/30 05:19:42;;;;;;;6.97;2.42;;;;;;;21.03;59.69;101594.66;5030051;28;20053;-45
2023/06/30 05:22:08;;;;;;;6.22;2.28;;;;;;;22.17;54.13;101588.78;5030266;28;20651;-49
2023/06/30 05:24:33;;;;;;;6.07;2.42;;;;;;;23.06;51.13;101580.38;5029428;28;20112;-46
2023/06/30 05:26:59;;;;;;;6.88;2.28;;;;;;;24.05;47.39;101574.84;5030469;28;20033;-44
2023/06/30 05:29:28;;;;;;;10.98;2.60;;;;;;;24.08;47.47;101580.09;5029803;28;20037;-46
2023/06/30 05:31:53;;;;;;;5.72;2.30;;;;;;;24.64;46.32;101579.13;5030066;28;20025;-46
2023/06/30 05:34:18;;;;;;;5.85;2.13;;;;;;;25.41;44.56;101580.88;5029436;28;20041;-50
2023/06/30 05:36:44;;;;;;;9.73;2.50;;;;;;;25.26;44.05;101573.44;5030291;28;20057;-45
2023/06/30 05:39:10;;;;;;;6.78;2.20;;;;;;;24.92;44.48;101583.56;5029864;28;20034;-49
2023/06/30 05:41:36;;;;;;;5.68;2.13;;;;;;;25.35;43.95;101586.47;5029835;28;20079;-44
2023/06/30 05:44:01;;;;;;;6.18;2.10;;;;;;;25.66;42.84;101575.53;5030197;28;20041;-49
2023/06/30 05:46:26;;;;;;;6.97;2.20;;;;;;;26.17;42.17;101585.09;5029856;28;20040;-47
2023/06/30 05:48:52;;;;;;;5.47;2.22;;;;;;;26.34;41.74;101579.13;5029360;28;20475;-46
2023/06/30 05:51:17;;;;;;;8.25;2.28;;;;;;;26.95;41.30;101578.31;5029111;28;20034;-51
2023/06/30 05:53:42;;;;;;;7.60;2.15;;;;;;;27.05;39.98;101568.94;5029621;28;20061;-42
2023/06/30 05:56:08;;;;;;;5.38;1.95;;;;;;;27.27;39.53;101576.88;5029675;28;20041;-46
2023/06/30 05:58:35;;;;;;;6.13;2.05;;;;;;;26.42;41.27;101585.00;5028716;28;20040;-47
2023/06/30 06:01:00;;;;;;;6.47;2.30;;;;;;;27.01;40.77;101588.75;5029561;28;20041;-47
2023/06/30 06:03:30;;;;;;;5.35;2.08;;;;;;;26.88;39.72;101581.28;5029387;28;20075;-51
2023/06/30 06:05:58;;;;;;;9.18;2.20;;;;;;;26.62;40.91;101591.28;5029673;28;20030;-44
2023/06/30 06:08:23;;;;;;;6.20;1.98;;;;;;;27.35;39.32;101585.44;5028939;28;20034;-46
2023/06/30 06:10:49;;;;;;;5.07;1.98;;;;;;;27.20;39.60;101585.28;5029772;28;20022;-43
2023/06/30 06:13:34;;;;;;;5.70;2.13;;;;;;;27.05;39.73;101579.66;5029866;28;20087;-46
2023/06/30 06:16:00;;;;;;;4.10;1.70;;;;;;;27.31;39.25;101580.31;5030034;28;20037;-43
2023/06/30 06:18:25;;;;;;;6.10;1.92;;;;;;;28.54;38.03;101577.16;5029595;28;20045;-48
2023/06/30 06:20:51;;;;;;;8.38;1.98;;;;;;;28.04;37.49;101576.91;5030869;28;20111;-45
2023/06/30 06:23:16;;;;;;;4.68;1.75;;;;;;;27.40;38.35;101570.03;5028906;28;20044;-47
2023/06/30 06:25:41;;;;;;;7.13;1.67;;;;;;;27.59;38.39;101572.78;5029606;28;20030;-48
2023/06/30 06:28:07;;;;;;;5.95;1.73;;;;;;;27.93;36.43;101577.44;5028582;28;20044;-47
2023/06/30 06:30:32;;;;;;;6.00;2.05;;;;;;;28.16;36.45;101579.91;5027956;28;20522;-47
2023/06/30 06:32:57;;;;;;;8.88;2.10;;;;;;;28.49;35.71;101582.72;5029129;28;20571;-44
2023/06/30 06:35:23;;;;;;;4.53;1.90;;;;;;;28.82;34.56;101580.19;5028607;28;20468;-43
2023/06/30 06:37:48;;;;;;;4.97;2.10;;;;;;;28.34;35.81;101582.63;5028549;28;20029;-51
2023/06/30 06:40:13;;;;;;;5.47;1.65;;;;;;;28.52;35.03;101584.38;5029082;28;20119;-48
2023/06/30 06:42:39;;;;;;;6.53;1.70;;;;;;;28.54;34.71;101585.19;5028900;28;20496;-47
2023/06/30 06:45:05;;;;;;;6.78;2.08;;;;;;;28.67;34.15;101580.06;5032492;28;20095;-46
2023/06/30 06:48:08;;;;;;;5.60;2.10;;;;;;;28.23;35.51;101575.13;5032883;28;20041;-45
2023/06/30 06:50:33;;;;;;;9.53;1.90;;;;;;;29.01;34.10;101572.91;5032993;28;20463;-48
2023/06/30 06:52:58;;;;;;;8.68;2.00;;;;;;;28.74;33.08;101578.81;5033175;28;20033;-48
2023/06/30 06:55:24;;;;;;;6.55;1.90;;;;;;;29.12;32.73;101575.03;5032395;28;20042;-48
2023/06/30 06:57:49;;;;;;;5.60;1.80;;;;;;;29.57;31.95;101577.09;5032408;28;20025;-48
2023/06/30 07:00:18;;;;;;;4.47;2.17;;;;;;;29.14;32.82;101577.63;5031784;28;20091;-48
2023/06/30 07:02:43;;;;;;;6.38;1.70;;;;;;;29.56;31.75;101567.31;5032693;28;20052;-48
2023/06/30 07:05:10;;;;;;;5.53;1.63;;;;;;;28.53;33.57;101576.28;5031782;28;20029;-48
2023/06/30 07:07:36;;;;;;;4.43;2.00;;;;;;;27.72;35.38;101568.59;5031767;28;20045;-49
2023/06/30 07:10:01;;;;;;;4.63;1.77;;;;;;;27.45;35.98;101569.81;5032303;28;20079;-48
2023/06/30 07:12:26;;;;;;;6.57;1.90;;;;;;;28.14;35.07;101565.69;5032154;28;20487;-51
2023/06/30 07:14:52;;;;;;;3.20;1.70;;;;;;;28.26;33.67;101572.25;5032277;28;20033;-48
2023/06/30 07:17:17;;;;;;;6.00;1.90;;;;;;;28.71;31.92;101569.09;5031398;28;20025;-47
2023/06/30 07:19:43;;;;;;;7.05;1.90;;;;;;;28.34;33.29;101569.22;5031938;28;20029;-45
2023/06/30 07:22:08;;;;;;;5.97;2.00;;;;;;;28.51;32.59;101575.47;5032556;28;20033;-45
2023/06/30 07:24:33;;;;;;;6.35;2.08;;;;;;;29.95;31.18;101574.16;5031781;28;20172;-48
2023/06/30 07:26:59;;;;;;;6.78;1.90;;;;;;;29.43;31.80;101567.09;5031683;28;20097;-45
2023/06/30 07:29:25;;;;;;;5.57;2.20;;;;;;;29.12;32.77;101571.47;5031775;28;20029;-48
2023/06/30 07:31:50;;;;;;;6.68;2.30;;;;;;;30.31;30.94;101566.66;5031963;28;20033;-48
2023/06/30 07:34:19;;;;;;;8.55;2.00;;;;;;;30.34;30.41;101573.69;5031565;28;20033;-52
2023/06/30 07:36:45;;;;;;;5.25;1.88;;;;;;;29.72;31.35;101564.63;5032106;28;20044;-49
2023/06/30 07:39:11;;;;;;;7.55;2.13;;;;;;;29.23;31.93;101566.41;5031993;28;20033;-49
2023/06/30 07:41:36;;;;;;;6.72;2.08;;;;;;;28.94;30.68;101568.81;5031650;28;20026;-50
2023/06/30 07:44:01;;;;;;;4.68;1.80;;;;;;;28.21;33.14;101558.22;5031812;28;20025;-45
2023/06/30 07:46:27;;;;;;;9.70;2.15;;;;;;;28.67;31.58;101563.97;5031439;28;20042;-48
2023/06/30 07:48:52;;;;;;;4.35;2.00;;;;;;;29.75;30.49;101554.59;5031137;28;20407;-49
2023/06/30 07:51:17;;;;;;;5.93;2.10;;;;;;;29.11;31.36;101564.38;5031179;28;20053;-49
2023/06/30 07:53:44;;;;;;;7.78;2.00;;;;;;;29.49;31.11;101552.47;5031796;28;20116;-53
2023/06/30 07:56:10;;;;;;;4.88;1.95;;;;;;;28.15;33.17;101547.78;5031682;28;20033;-44
2023/06/30 07:58:35;;;;;;;5.00;1.90;;;;;;;28.91;32.15;101542.13;5030802;28;20025;-46
2023/06/30 08:01:01;;;;;;;5.45;1.90;;;;;;;28.53;32.24;101556.63;5031574;28;20183;-47
2023/06/30 08:03:26;;;;;;;5.65;1.90;;;;;;;27.36;33.70;101555.06;5030867;28;20435;-46
2023/06/30 08:05:51;;;;;;;4.80;1.80;;;;;;;27.79;33.25;101553.97;5031494;28;20029;-47
2023/06/30 08:08:16;;;;;;;3.25;1.90;;;;;;;26.85;34.83;101551.97;5030489;28;20037;-46
2023/06/30 08:10:42;;;;;;;4.63;2.03;;;;;;;27.17;34.17;101553.28;5031275;28;20037;-48
2023/06/30 08:13:07;;;;;;;4.43;1.88;;;;;;;26.75;34.58;101550.63;5029572;28;20079;-51
2023/06/30 08:15:32;;;;;;;5.20;1.92;;;;;;;26.89;35.83;101545.59;5030889;28;20069;-47
2023/06/30 08:17:58;;;;;;;4.53;1.85;;;;;;;27.35;35.32;101549.75;5030925;28;20088;-49
2023/06/30 08:20:23;;;;;;;6.13;2.10;;;;;;;27.39;35.07;101554.91;5030640;28;20073;-45
2023/06/30 08:22:49;;;;;;;4.40;2.00;;;;;;;27.88;33.41;101551.75;5031429;28;20049;-47
2023/06/30 08:25:14;;;;;;;6.05;2.20;;;;;;;27.22;34.46;101548.56;5031367;28;20741;-53
2023/06/30 08:27:39;;;;;;;4.93;2.42;;;;;;;26.48;35.33;101553.53;5030316;28;20037;-48
2023/06/30 08:30:05;;;;;;;6.80;2.10;;;;;;;26.77;35.57;101546.09;5030900;28;20044;-45
2023/06/30 08:32:31;;;;;;;4.63;2.08;;;;;;;26.89;35.82;101540.25;5030653;28;20041;-49
2023/06/30 08:34:56;;;;;;;7.28;2.13;;;;;;;27.11;35.44;101532.13;5030969;28;20034;-44
2023/06/30 08:37:21;;;;;;;10.45;1.85;;;;;;;27.83;34.67;101535.91;5029849;28;20120;-47
2023/06/30 08:39:47;;;;;;;6.75;1.85;;;;;;;28.38;33.04;101533.25;5031046;28;20059;-47
2023/06/30 08:42:15;;;;;;;5.05;1.90;;;;;;;28.45;31.01;101534.66;5031098;28;20443;-46
2023/06/30 08:44:43;;;;;;;5.80;1.85;;;;;;;28.91;31.36;101527.84;5030571;28;20033;-48
2023/06/30 08:47:10;;;;;;;3.20;1.80;;;;;;;28.64;31.21;101530.97;5030401;28;20041;-47
2023/06/30 08:49:37;;;;;;;3.92;1.67;;;;;;;27.66;32.74;101525.13;5030354;28;20025;-47
2023/06/30 08:52:03;;;;;;;5.43;1.90;;;;;;;26.17;35.57;101526.31;5030938;28;20041;-45
2023/06/30 08:54:30;;;;;;;3.63;1.77;;;;;;;26.38;34.45;101520.13;5030254;28;20029;-47
2023/06/30 08:56:57;;;;;;;5.25;1.90;;;;;;;26.07;34.69;101515.13;5030363;28;20030;-46
2023/06/30 08:59:22;;;;;;;3.85;1.80;;;;;;;26.69;34.86;101514.31;5030117;28;20067;-47
2023/06/30 09:01:48;;;;;;;4.07;2.00;;;;;;;27.24;33.53;101511.91;5031002;28;20112;-50
2023/06/30 09:04:13;;;;;;;3.85;1.77;;;;;;;27.13;34.71;101514.22;5030569;28;20037;-46
2023/06/30 09:06:47;;;;;;;9.23;2.00;;;;;;;27.08;34.79;101509.03;5029737;28;20533;-45
2023/06/30 09:09:20;;;;;;;5.35;1.88;;;;;;;26.56;36.64;101510.44;5030832;28;20033;-43
2023/06/30 09:11:45;;;;;;;2.90;1.90;;;;;;;26.95;35.70;101502.53;5030181;28;20034;-48
2023/06/30 09:14:11;;;;;;;4.70;2.08;;;;;;;26.72;36.02;101499.94;5030023;28;20025;-45
2023/06/30 09:16:37;;;;;;;4.28;1.73;;;;;;;26.63;35.12;101496.75;5029598;28;20037;-48
2023/06/30 09:19:04;;;;;;;3.58;1.90;;;;;;;25.60;36.10;101493.00;5029491;28;20044;-48
2023/06/30 09:21:29;;;;;;;3.92;1.60;;;;;;;26.47;35.02;101492.13;5029891;28;20033;-46
2023/06/30 09:23:54;;;;;;;5.22;1.75;;;;;;;26.38;34.24;101489.84;5029881;28;20042;-45
2023/06/30 09:26:20;;;;;;;3.92;1.73;;;;;;;25.80;36.16;101502.88;5029632;28;20037;-47
2023/06/30 09:28:45;;;;;;;4.72;1.88;;;;;;;26.03;36.14;101497.50;5029625;28;20037;-50
2023/06/30 09:31:12;;;;;;;8.57;2.10;;;;;;;26.39;34.35;101492.44;5029911;28;20104;-49
2023/06/30 09:33:39;;;;;;;5.18;1.90;;;;;;;26.86;33.74;101485.03;5029267;28;20389;-46
2023/06/30 09:36:06;;;;;;;4.25;2.08;;;;;;;26.99;33.69;101488.94;5029813;28;20091;-45
2023/06/30 09:38:32;;;;;;;3.80;1.70;;;;;;;26.17;35.38;101496.91;5029239;28;20496;-51
2023/06/30 09:40:57;;;;;;;4.20;2.00;;;;;;;26.35;34.57;101495.31;5029772;28;20134;-46
2023/06/30 09:43:25;;;;;;;6.05;2.13;;;;;;;26.88;33.70;101484.97;5029693;28;20650;-47
2023/06/30 09:45:55;;;;;;;3.80;1.80;;;;;;;27.42;33.27;101489.63;5029940;28;20057;-47
2023/06/30 09:48:20;;;;;;;5.20;2.05;;;;;;;26.99;34.15;101488.94;5028649;28;20037;-49
2023/06/30 09:50:46;;;;;;;4.53;1.92;;;;;;;26.90;34.21;101493.81;5029663;28;20033;-52
2023/06/30 09:53:17;;;;;;;3.75;1.90;;;;;;;27.17;35.26;101484.53;5029723;28;20653;-45
2023/06/30 09:55:50;;;;;;;3.33;1.85;;;;;;;27.60;33.70;101482.56;5029105;28;20500;-46
2023/06/30 09:58:19;;;;;;;5.05;2.22;;;;;;;27.48;33.56;101478.63;5028892;28;20034;-50
2023/06/30 10:00:46;;;;;;;5.53;2.10;;;;;;;27.61;33.77;101478.94;5029692;28;20042;-51
2023/06/30 10:03:16;;;;;;;3.47;1.83;;;;;;;26.96;34.42;101478.34;5029385;28;20044;-48
2023/06/30 10:05:42;;;;;;;3.78;1.92;;;;;;;27.66;34.13;101471.56;5029671;28;20124;-46
2023/06/30 10:08:09;;;;;;;4.93;1.88;;;;;;;26.91;34.72;101471.47;5029034;28;20729;-45
2023/06/30 10:10:34;;;;;;;6.30;2.25;;;;;;;26.98;34.50;101464.91;5029310;28;20076;-44
2023/06/30 10:13:02;;;;;;;3.92;1.80;;;;;;;27.71;33.53;101470.38;5029696;28;20057;-45
2023/06/30 10:15:29;;;;;;;4.80;2.10;;;;;;;27.33;34.67;101468.63;5029035;28;20049;-49
2023/06/30 10:17:57;;;;;;;3.88;1.85;;;;;;;26.71;35.46;101469.66;5029167;28;20494;-44
2023/06/30 10:20:22;;;;;;;6.05;2.10;;;;;;;26.40;36.42;101464.78;5033023;28;20492;-47
2023/06/30 10:22:48;;;;;;;4.28;2.30;;;;;;;25.10;38.03;101462.84;5033601;28;20112;-49
2023/06/30 10:25:16;;;;;;;6.75;2.60;;;;;;;25.52;38.03;101468.34;5033273;28;20454;-51
2023/06/30 10:27:44;;;;;;;5.88;2.10;;;;;;;26.53;36.62;101462.44;5032674;28;20111;-50
2023/06/30 10:30:11;;;;;;;4.93;2.25;;;;;;;27.03;35.27;101461.06;5033686;28;20084;-51
2023/06/30 10:32:37;;;;;;;5.43;2.20;;;;;;;26.85;36.43;101467.22;5033910;28;20041;-46
2023/06/30 10:35:03;;;;;;;4.88;2.30;;;;;;;26.75;35.34;101457.00;5033272;28;20034;-46
2023/06/30 10:37:29;;;;;;;5.10;2.20;;;;;;;27.67;33.85;101451.88;5032735;28;20037;-49
2023/06/30 10:39:54;;;;;;;5.72;2.30;;;;;;;27.73;33.08;101447.09;5033093;28;20037;-50
2023/06/30 10:42:20;;;;;;;6.75;2.40;;;;;;;27.28;34.31;101444.75;5032810;28;20041;-47
2023/06/30 10:44:47;;;;;;;6.55;2.70;;;;;;;26.82;34.82;101443.31;5033036;28;20396;-48
2023/06/30 10:47:14;;;;;;;7.32;2.40;;;;;;;27.43;33.64;101453.88;5032808;28;20037;-53
2023/06/30 10:49:41;;;;;;;5.07;2.50;;;;;;;27.83;32.32;101437.63;5032737;28;20083;-46
2023/06/30 10:52:12;;;;;;;3.97;2.33;;;;;;;28.10;33.02;101442.56;5033248;28;20030;-49
2023/06/30 10:54:55;;;;;;;6.55;2.20;;;;;;;27.71;32.47;101440.06;5032559;28;20033;-47
2023/06/30 10:57:23;;;;;;;4.63;2.28;;;;;;;28.13;31.72;101451.34;5032144;28;20038;-47
2023/06/30 11:00:10;;;;;;;5.85;2.35;;;;;;;27.83;31.39;101439.44;5032900;28;20033;-53
2023/06/30 11:02:37;;;;;;;7.07;2.60;;;;;;;27.34;31.64;101436.44;5032760;28;20037;-51
2023/06/30 11:05:42;;;;;;;3.65;1.88;;;;;;;27.91;32.47;101436.41;5032793;28;20029;-47
2023/06/30 11:08:21;;;;;;;7.50;2.30;;;;;;;27.66;31.87;101428.69;4970669;28;20117;-48
2023/06/30 11:10:47;;;;;;;3.92;2.08;;;;;;;27.18;32.25;101421.16;4970329;28;20041;-44
2023/06/30 11:13:13;;;;;;;5.13;2.22;;;;;;;27.33;33.34;101432.00;5004582;28;20075;-46
2023/06/30 11:15:41;;;;;;;4.80;2.10;;;;;;;27.66;32.70;101424.22;5032283;28;20030;-45
2023/06/30 11:18:14;;;;;;;5.32;2.30;;;;;;;27.97;32.34;101420.00;5032316;28;20049;-46
2023/06/30 11:21:03;;;;;;;5.45;1.98;;;;;;;27.54;31.63;101426.63;5032337;28;20488;-47
2023/06/30 11:23:32;;;;;;;5.40;1.85;;;;;;;27.19;33.04;101426.47;5032882;28;20127;-48